createdAt,value
2022-10-14T00:01:06.501Z,978.18
2022-10-14T00:07:39.754Z,978.16
2022-10-14T00:14:10.869Z,978.21
2022-10-14T00:20:53.464Z,978.17
2022-10-14T00:27:27.822Z,978.22
2022-10-14T00:34:05.148Z,978.22
2022-10-14T00:40:36.265Z,978.2
2022-10-14T00:47:15.190Z,978.16
2022-10-14T00:54:09.019Z,978.16
2022-10-14T01:00:53.032Z,978.19
2022-10-14T01:07:36.967Z,978.25
2022-10-14T01:14:44.280Z,978.24
2022-10-14T01:22:02.154Z,978.2
2022-10-14T01:29:26.213Z,978.13
2022-10-14T01:36:31.272Z,977.89
2022-10-14T01:43:40.941Z,977.82
2022-10-14T01:50:46.420Z,977.75
2022-10-14T01:57:49.864Z,977.65
2022-10-14T02:04:25.511Z,977.49
2022-10-14T02:11:44.751Z,977.34
2022-10-14T02:19:01.780Z,977.18
2022-10-14T02:26:14.602Z,977.04
2022-10-14T02:33:01.681Z,976.95
2022-10-14T02:39:41.953Z,976.9
2022-10-14T02:46:18.904Z,976.84
2022-10-14T02:53:11.604Z,976.83
2022-10-14T02:59:52.287Z,976.87
2022-10-14T03:06:16.895Z,976.84
2022-10-14T03:12:50.926Z,976.79
2022-10-14T03:19:32.260Z,976.75
2022-10-14T03:26:00.983Z,976.7
2022-10-14T03:32:33.785Z,976.68
2022-10-14T03:38:57.411Z,976.7
2022-10-14T03:45:25.811Z,976.67
2022-10-14T03:52:01.395Z,976.62
2022-10-14T03:58:33.923Z,976.53
2022-10-14T04:05:03.271Z,976.45
2022-10-14T04:11:39.002Z,976.37
2022-10-14T04:18:05.829Z,976.18
2022-10-14T04:24:38.211Z,976.05
2022-10-14T04:31:06.953Z,976.09
2022-10-14T04:37:42.054Z,976.02
2022-10-14T04:44:27.418Z,976.13
2022-10-14T04:50:53.870Z,976.03
2022-10-14T04:57:31.363Z,975.96
2022-10-14T05:04:03.747Z,975.96
2022-10-14T05:10:33.107Z,975.97
2022-10-14T05:17:01.163Z,976.04
2022-10-14T05:23:36.397Z,976
2022-10-14T05:30:06.238Z,975.86
2022-10-14T05:36:41.171Z,975.83
2022-10-14T05:43:14.995Z,975.71
2022-10-14T05:49:39.322Z,975.75
2022-10-14T05:56:08.271Z,975.68
2022-10-14T06:02:47.010Z,975.68
2022-10-14T06:09:12.197Z,975.71
2022-10-14T06:15:51.799Z,975.74
2022-10-14T06:22:12.335Z,975.68
2022-10-14T06:28:41.666Z,975.7
2022-10-14T06:35:10.048Z,975.58
2022-10-14T06:41:43.787Z,975.55
2022-10-14T06:48:19.007Z,975.5
2022-10-14T06:54:49.765Z,975.46
2022-10-14T07:01:29.758Z,975.47
2022-10-14T07:07:57.247Z,975.44
2022-10-14T07:14:26.668Z,975.4
2022-10-14T07:21:10.279Z,975.4
2022-10-14T07:27:48.880Z,975.37
2022-10-14T07:34:20.660Z,975.42
2022-10-14T07:40:52.332Z,975.42
2022-10-14T07:47:24.289Z,975.46
2022-10-14T07:53:54.403Z,975.43
2022-10-14T08:00:45.216Z,975.37
2022-10-14T08:07:30.337Z,975.39
2022-10-14T08:14:05.665Z,975.32
2022-10-14T08:20:44.602Z,975.34
2022-10-14T08:27:18.577Z,975.26
2022-10-14T08:33:47.086Z,975.26
2022-10-14T08:40:43.727Z,975.22
2022-10-14T08:47:56.301Z,975.22
2022-10-14T08:54:55.797Z,975.15
2022-10-14T09:01:55.799Z,975.05
2022-10-14T09:08:50.137Z,974.97
2022-10-14T09:16:00.553Z,974.9
2022-10-14T09:22:49.185Z,974.91
2022-10-14T09:29:28.713Z,974.89
2022-10-14T09:36:31.519Z,974.82
2022-10-14T09:43:40.912Z,974.77
2022-10-14T09:50:57.265Z,974.73
2022-10-14T09:58:07.499Z,974.72
2022-10-14T10:05:11.880Z,974.64
2022-10-14T10:12:23.970Z,974.55
2022-10-14T10:19:37.696Z,974.55
2022-10-14T10:27:01.266Z,974.56
2022-10-14T10:34:16.248Z,974.47
2022-10-14T10:41:18.481Z,974.44
2022-10-14T10:48:26.071Z,974.36
2022-10-14T10:55:33.104Z,974.31
2022-10-14T11:02:37.219Z,974.14
2022-10-14T11:09:27.143Z,974.09
2022-10-14T11:16:39.946Z,974.04
2022-10-14T11:23:42.309Z,973.96
2022-10-14T11:30:40.449Z,973.88
2022-10-14T11:37:48.510Z,973.87
2022-10-14T11:44:44.282Z,973.87
2022-10-14T11:51:52.917Z,973.8
2022-10-14T11:59:14.317Z,973.77
2022-10-14T12:06:27.181Z,973.73
2022-10-14T12:13:38.280Z,973.72
2022-10-14T12:20:50.283Z,973.71
2022-10-14T12:27:56.505Z,973.84
2022-10-14T12:34:41.261Z,973.79
2022-10-14T12:41:46.238Z,973.65
2022-10-14T12:48:56.378Z,973.62
2022-10-14T12:55:35.183Z,973.53
2022-10-14T13:02:37.362Z,973.48
2022-10-14T13:09:38.641Z,973.31
2022-10-14T13:16:53.556Z,973.19
2022-10-14T13:23:49.249Z,973.11
2022-10-14T13:30:47.226Z,973.09
2022-10-14T13:38:23.192Z,973.05
2022-10-14T13:45:10.417Z,972.92
2022-10-14T13:52:15.456Z,972.97
2022-10-14T13:59:39.372Z,973.1
2022-10-14T14:06:52.160Z,973.13
2022-10-14T14:13:31.244Z,972.96
2022-10-14T14:20:23.958Z,972.83
2022-10-14T14:27:15.561Z,972.65
2022-10-14T14:34:12.362Z,972.67
2022-10-14T14:40:59.559Z,972.62
2022-10-14T14:47:44.203Z,972.66
2022-10-14T14:54:29.209Z,972.69
2022-10-14T15:01:38.009Z,972.68
2022-10-14T15:08:21.372Z,972.48
2022-10-14T15:15:18.679Z,972.38
2022-10-14T15:22:17.244Z,972.41
2022-10-14T15:28:58.724Z,972.45
2022-10-14T15:35:47.275Z,972.52
2022-10-14T15:42:27.625Z,972.47
2022-10-14T15:49:29.761Z,972.43
2022-10-14T15:56:10.151Z,972.23
2022-10-14T16:02:53.391Z,972.16
2022-10-14T16:09:29.263Z,972.24
2022-10-14T16:16:09.362Z,972.23
2022-10-14T16:22:47.274Z,972.16
2022-10-14T16:29:19.268Z,972.14
2022-10-14T16:35:47.306Z,972.15
2022-10-14T16:42:20.079Z,972.06
2022-10-14T16:48:49.299Z,972.02
2022-10-14T16:55:24.356Z,971.92
2022-10-14T17:01:50.807Z,971.89
2022-10-14T17:08:29.762Z,971.76
2022-10-14T17:14:55.348Z,971.84
2022-10-14T17:21:24.564Z,971.92
2022-10-14T17:27:59.342Z,971.92
2022-10-14T17:34:29.759Z,971.84
2022-10-14T17:40:56.972Z,971.78
2022-10-14T17:47:33.281Z,971.82
2022-10-14T17:54:03.348Z,971.85
2022-10-14T18:00:47.310Z,971.8
2022-10-14T18:07:22.413Z,971.76
2022-10-14T18:14:02.303Z,971.69
2022-10-14T18:20:39.320Z,971.71
2022-10-14T18:27:05.834Z,971.66
2022-10-14T18:33:40.005Z,971.59
2022-10-14T18:40:11.705Z,971.57
2022-10-14T18:46:49.439Z,971.52
2022-10-14T18:53:29.679Z,971.42
2022-10-14T19:00:16.561Z,971.36
2022-10-14T19:06:56.382Z,971.19
2022-10-14T19:13:33.848Z,971.14
2022-10-14T19:20:15.365Z,971.04
2022-10-14T19:26:47.031Z,970.97
2022-10-14T19:33:14.406Z,970.84
2022-10-14T19:39:49.609Z,970.83
2022-10-14T19:46:17.651Z,970.77
2022-10-14T19:52:55.391Z,970.66
2022-10-14T19:59:21.196Z,970.57
2022-10-14T20:05:51.736Z,970.45
2022-10-14T20:12:25.321Z,970.38
2022-10-14T20:18:52.300Z,970.39
2022-10-14T20:25:21.390Z,970.3
2022-10-14T20:32:03.090Z,970.27
2022-10-14T20:38:34.656Z,970.15
2022-10-14T20:45:11.392Z,970.1
2022-10-14T20:51:47.825Z,970.08
2022-10-14T20:58:18.584Z,970.04
2022-10-14T21:04:56.611Z,969.99
2022-10-14T21:11:32.376Z,970.01
2022-10-14T21:18:07.858Z,969.8
2022-10-14T21:24:44.946Z,969.74
2022-10-14T21:31:09.431Z,969.75
2022-10-14T21:37:48.216Z,969.69
2022-10-14T21:44:16.206Z,969.53
2022-10-14T21:50:44.991Z,969.45
2022-10-14T21:57:10.795Z,969.48
2022-10-14T22:03:39.422Z,969.49
2022-10-14T22:10:09.228Z,969.44
2022-10-14T22:16:39.759Z,969.4
2022-10-14T22:23:20.520Z,969.35
2022-10-14T22:29:55.048Z,969.32
2022-10-14T22:36:28.381Z,969.31
2022-10-14T22:42:57.221Z,969.31
2022-10-14T22:49:20.720Z,969.23
2022-10-14T22:55:47.447Z,969.22
2022-10-14T23:02:21.152Z,969.17
2022-10-14T23:08:49.374Z,969.18
2022-10-14T23:15:14.675Z,969.18
2022-10-14T23:21:47.460Z,969.13
2022-10-14T23:28:19.697Z,969.06
2022-10-14T23:34:46.273Z,969.05
2022-10-14T23:41:36.207Z,969.03
2022-10-14T23:48:21.701Z,969.09
2022-10-14T23:54:47.605Z,969.15
